KDAG

Barstow-Daggett Airport

Daggett, California, USA
METAR KDAG 230250Z AUTO 24011G16KT 10SM CLR 28/02 A2976 RMK AO2 SLP054 T02830017 53005
Observed Flight Rules
May-23 @ 02:50 UTC (16 minutes ago) Visual Flight Rules
Wind Visibility Clouds
240° at 11 knots
 Gusting to 16 knots
10 miles
  • Clear skies
Temperatures Readings
Current 28°C / 82°F
Dewpoint 2°C / 36°F
Humidity 19%
Altimeter 29.76" Hg
Pressure 1005.4 hPa
Elevation 587
METAR KDAG 230250Z AUTO 24011G16KT 10SM CLR 28/02 A2976 RMK AO2 SLP054 T02830017 53005
Observed Flight Rules
May-23 @ 02:50 UTC
(16 minutes ago)
VFR
Wind Visibility
240° at 11 knots
 Gusting to 16 knots
10 miles
Clouds
  • Clear skies
Temperature Dewpoint
28°C / 82°F 2°C / 36°F
Humidity Altimeter Pressure
19% 29.76" Hg 1005.4 hPa